Flight Track Log - Related Links

Times and Time Zones

All times are in EST time to prevent confusion due to time zone crossing. See the N789EX flight status page for this flight to view local times or setup timezone preferences in your user account.

Time Position Orientation Groundspeed Altitude Reporting Facility
EST Latitude Longitude Course Direction KTS MPH feet Rate Location/Type
Sat 02:27:52 PM 40.1950 -105.7380 120° Southeast 497 572 37,000  Level FlightAware ADS-B
Sat 02:28:28 PM 40.1530 -105.6440 120° Southeast 500 575 37,000  Level FlightAware ADS-B
Sat 02:28:56 PM 40.1210 -105.5740 121° Southeast 492 566 37,000  Level FlightAware ADS-B
Sat 02:29:56 PM 40.0540 -105.4230 120° Southeast 480 552 37,000  Level FlightAware ADS-B
Sat 02:30:52 PM 39.9910 -105.2830 120° Southeast 477 549 37,000  Level FlightAware ADS-B
Sat 02:31:20 PM 39.9590 -105.2120 120° Southeast 480 552 37,000 -71 Level FlightAware ADS-B
Sat 02:32:16 PM 39.8950 -105.0710 121° Southeast 482 555 36,900  Descending FlightAware ADS-B
Sat 02:32:48 PM 39.8590 -104.9910 120° Southeast 482 555 37,000 94 Climbing FlightAware ADS-B
Sat 02:33:20 PM 39.8230 -104.9110 120° Southeast 482 555 37,000  Level FlightAware ADS-B
Sat 02:34:16 PM 39.7700 -104.7610 115° Southeast 501 577 37,000  Level FlightAware ADS-B
Sat 02:34:40 PM 39.7530 -104.6920 108° East 504 580 37,000  Level FlightAware ADS-B
Sat 02:35:38 PM 39.7130 -104.5280 108° East 502 578 37,000  Level FlightAware ADS-B
Sat 02:36:26 PM 39.6790 -104.3870 107° East 503 579 37,000  Level FlightAware ADS-B
Sat 02:36:58 PM 39.6560 -104.2950 108° East 504 580 37,000 -9,333 Level FlightAware ADS-B
Sat 02:38:05 PM 47.7203 -119.0578 108° East 422 486 21,600 -7,087 Descending Seattle Center
Sat 02:39:05 PM 47.7344 -118.8742 83° East 439 505 22,000 198 Climbing Seattle Center
Sat 02:40:06 PM 47.7433 -118.6669 86° East 494 568 22,000 -49 Level Seattle Center
Sat 02:41:07 PM 47.7525 -118.4586 86° East 506 582 21,900 -49 Descending Seattle Center
Sat 02:42:08 PM 47.7619 -118.2481 86° East 509 586 21,900  Level Seattle Center
Sat 02:43:09 PM 47.7647 -118.0428 89° East 503 579 21,900  Level Seattle Center
Sat 02:44:10 PM 47.7636 -117.8264 90° East 515 593 21,900  Level Seattle Center
Sat 02:45:11 PM 47.7692 -117.6103 88° East 522 601 21,900  Level Seattle Center
Sat 02:46:11 PM 47.7669 -117.3528 91° East 519 597 21,900 50 Level Seattle Center
Sat 02:47:12 PM 47.7219 -117.1631 109° East 506 582 22,000 98 Climbing Seattle Center
Sat 02:48:13 PM 47.6042 -117.1892 189° South 477 549 22,100 49 Climbing Seattle Center
Sat 02:49:14 PM 47.6058 -117.3778 271° West 480 552 22,100  Level Seattle Center
Sat 02:50:15 PM 47.6428 -117.5644 286° West 474 545 22,100 -98 Level Seattle Center
Sat 02:51:16 PM 47.6786 -117.7508 286° West 472 543 21,900 -149 Descending Seattle Center
Sat 02:52:16 PM 47.7156 -117.9369 287° West 471 542 21,800 -50 Descending Seattle Center
Sat 02:53:17 PM 47.7503 -118.1200 286° West 466 536 21,800 49 Level Seattle Center
Sat 02:54:18 PM 47.7897 -118.3056 288° West 469 540 21,900  Climbing Seattle Center
Sat 02:55:19 PM 47.8281 -118.4908 287° West 469 540 21,800 -98 Descending Seattle Center
Sat 02:56:20 PM 47.8678 -118.6733 288° West 466 536 21,700 49 Descending Seattle Center
Sat 02:57:21 PM 47.9028 -118.8583 286° West 465 535 21,900  Climbing Seattle Center
Sat 02:58:22 PM 47.9281 -119.0517 281° West 474 545 21,700 -50 Descending Seattle Center
Sat 02:59:22 PM 47.9531 -119.2853 279° West 477 549 21,800 149 Climbing Seattle Center
Sat 03:00:23 PM 47.9769 -119.4764 281° West 472 543 22,000 30 Climbing Seattle Center
Sat 03:05:56 PM 48.0880 -120.5810 281° West 491 565 22,000  Level FlightAware ADS-B
Sat 03:06:56 PM 48.1050 -120.7850 277° West 490 564 22,000 -57 Level FlightAware ADS-B
Sat 03:07:41 PM 48.1170 -120.9340 277° West 481 554 21,900 -257 Descending FlightAware ADS-B
Sat 03:08:06 PM 48.1240 -121.0170 277° West 481 554 21,700  Descending FlightAware ADS-B
Sat 03:08:52 PM 48.1330 -121.1620 275° West 455 524 21,900 200 Climbing FlightAware ADS-B
Sat 03:09:36 PM 48.1410 -121.2980 275° West 423 487 22,000 71 Climbing FlightAware ADS-B
Sat 03:10:16 PM 48.1470 -121.4130 275° West 415 478 22,000  Level FlightAware ADS-B
Sat 03:11:01 PM 48.1540 -121.5410 275° West 412 474 22,000 500 Level FlightAware ADS-B
Sat 03:12:16 PM 48.1660 -121.7390 275° West 341 392 23,000 545 Climbing FlightAware ADS-B
Sat 03:12:51 PM 48.1700 -121.8250 274° West 363 418 23,000  Level FlightAware ADS-B
Sat 03:13:41 PM 48.1780 -121.9490 276° West 362 417 23,000  Level FlightAware ADS-B
Sat 03:14:16 PM 48.1900 -122.0320 282° West 341 392 23,000  Level FlightAware ADS-B
Sat 03:14:46 PM 48.2270 -122.0740 323° Northwest 345 397 23,000  Level FlightAware ADS-B
Sat 03:15:01 PM 48.2500 -122.0780 353° North 360 414 23,000  Level FlightAware ADS-B
Sat 03:15:40 PM 48.3110 -122.0250 30° Northeast 448 516 23,000  Level FlightAware ADS-B
Sat 03:16:10 PM 48.3280 -121.9340 74° East 525 604 23,000 -295 Level FlightAware ADS-B
Sat 03:16:41 PM 48.3030 -121.8140 107° East 575 662 22,700 -750 Descending FlightAware ADS-B
Sat 03:17:22 PM 48.2420 -121.6860 126° Southeast 559 643 22,100 -395 Descending FlightAware ADS-B
Sat 03:17:57 PM 48.1940 -121.5770 123° Southeast 546 628 22,200 154 Climbing FlightAware ADS-B
Sat 03:18:40 PM 48.1180 -121.4710 137° Southeast 556 640 22,300 76 Climbing FlightAware ADS-B
Sat 03:19:16 PM 48.0730 -121.3440 118° Southeast 559 643 22,300 -77 Level FlightAware ADS-B
Sat 03:19:58 PM 48.0520 -121.1890 101° East 540 621 22,200 -180 Descending FlightAware ADS-B
Sat 03:20:56 PM 48.0410 -120.9720 94° East 534 615 22,000 -136 Descending FlightAware ADS-B
Sat 03:21:26 PM 48.0460 -120.8610 86° East 518 596 22,000  Level FlightAware ADS-B
Sat 03:21:51 PM 48.0660 -120.7920 67° East 498 573 22,000 185 Level FlightAware ADS-B
Sat 03:22:31 PM 48.0510 -120.6440 99° East 529 609 22,200 146 Climbing FlightAware ADS-B
Sat 03:23:13 PM 48.0320 -120.5110 102° East 539 620 22,200  Level FlightAware ADS-B
Sat 03:24:05 PM 47.9920 -120.3570 111° Southeast 539 620 22,200 -152 Level FlightAware ADS-B
Sat 03:24:32 PM 48.0360 -120.2170 65° Northeast 533 613 22,000 -188 Descending FlightAware ADS-B
Sat 03:25:09 PM 48.0310 -120.1020 94° East 533 613 22,000  Level FlightAware ADS-B
Sat 03:26:10 PM 48.0220 -119.9110 94° East 533 613 22,000  Level FlightAware ADS-B
Sat 03:26:47 PM 48.0160 -119.7950 94° East 533 613 22,000  Level FlightAware ADS-B
Sat 03:27:47 PM 48.0070 -119.6080 94° East 533 613 22,000  Level FlightAware ADS-B
Sat 03:28:23 PM 48.0020 -119.4950 94° East 533 613 22,000 -50 Level FlightAware ADS-B
Sat 03:29:46 PM 47.9789 -119.1403 94° East 519 597 21,900  Descending Seattle Center
Sat 03:30:47 PM 47.9389 -118.8897 103° East 518 596 22,000 49 Climbing Seattle Center
Sat 03:31:48 PM 47.9161 -118.6769 99° East 519 597 22,000 -246 Level Seattle Center
Sat 03:32:49 PM 47.9219 -118.4806 87° East 541 623 21,500 -50 Descending Seattle Center
Sat 03:33:49 PM 47.8892 -118.2842 104° East 504 580 21,900 198 Climbing Seattle Center
Sat 03:34:50 PM 47.8728 -118.0772 97° East 505 581 21,900  Level Seattle Center
Sat 03:35:51 PM 47.8589 -117.8706 96° East 503 579 21,900  Level Seattle Center
Sat 03:36:52 PM 47.9167 -117.7019 63° Northeast 488 562 21,900  Level Seattle Center
Sat 03:37:52 PM 48.0300 -117.7467 345° North 459 528 21,900  Level Seattle Center
Sat 03:38:53 PM 48.0364 -117.9225 273° West 450 518 21,900  Level Seattle Center
Sat 03:39:54 PM 48.0122 -118.0986 258° West 439 505 21,900  Level Seattle Center
Sat 03:40:55 PM 47.9883 -118.2786 259° West 444 511 21,900 50 Level Seattle Center
Sat 03:41:55 PM 47.9764 -118.4561 264° West 437 503 22,000 50 Climbing Seattle Center
Sat 03:42:56 PM 47.9989 -118.6272 281° West 447 514 22,000 -49 Level Seattle Center
Sat 03:43:57 PM 47.8944 -118.7389 216° Southwest 470 541 21,900 -49 Descending Seattle Center
Sat 03:44:58 PM 47.7842 -118.8144 205° Southwest 458 527 21,900 -2,380 Level Seattle Center
Sat 03:45:58 PM 47.6586 -118.9053 206° Southwest 423 487 17,100 -4,314 Descending Seattle Center
Sat 03:46:59 PM 47.5700 -118.9889 212° Southwest 384 442 13,200 -2,902 Descending Seattle Center
Sat 03:48:00 PM 47.4919 -119.0642 213° Southwest 338 389 11,200 -1,623 Descending Seattle Center
Sat 03:49:01 PM 47.4192 -119.1228 209° Southwest 292 336 9,900 -645 Descending Seattle Center
Sat 03:50:01 PM 47.3531 -119.0589 147° Southeast 294 338 9,900  Level Seattle Center
Sat 03:51:02 PM 47.2875 -118.9906 145° Southeast 271 312 9,900 49 Level Seattle Center
Sat 03:52:03 PM 47.2211 -118.9347 150° Southeast 274 315 10,000 49 Climbing Seattle Center
Sat 03:53:04 PM 47.1544 -118.8800 151° Southeast 275 316 10,000 -50 Level Seattle Center
Sat 03:54:04 PM 47.0950 -118.8278 149° Southeast 275 316 9,900 50 Descending Seattle Center
Sat 03:55:05 PM 47.0314 -118.7692 148° Southeast 272 313 10,100 295 Climbing Seattle Center
Sat 03:56:06 PM 46.9700 -118.7028 144° Southeast 274 315 10,500 49 Climbing Seattle Center
Sat 03:57:07 PM 46.9767 -118.6042 84° East 271 312 10,200 -298 Descending Seattle Center
Sat 03:58:07 PM 47.0353 -118.6383 338° Northwest 242 278 9,900 -149 Descending Seattle Center
Sat 03:59:08 PM 47.0869 -118.7006 321° Northwest 240 276 9,900 -49 Level Seattle Center
Sat 04:00:10 PM 47.1461 -118.7792 318° Northwest 240 276 9,800 -49 Descending Seattle Center
Sat 04:01:11 PM 47.1883 -118.8544 310° West 237 273 9,800 98 Level Seattle Center
Sat 04:02:12 PM 47.2261 -118.9367 304° West 234 269 10,000 148 Climbing Seattle Center
Sat 04:03:13 PM 47.2528 -119.0250 294° West 238 274 10,100 49 Climbing Seattle Center
Sat 04:04:14 PM 47.2781 -119.1144 293° West 238 274 10,100 -49 Level Seattle Center
Sat 04:05:15 PM 47.2992 -119.2011 290° West 237 273 10,000 50 Descending Seattle Center
Sat 04:06:15 PM 47.2781 -119.2978 252° West 245 282 10,200 50 Climbing Seattle Center
Sat 04:07:16 PM 47.2228 -119.3589 217° Southwest 249 287 10,100 -49 Descending Seattle Center
Sat 04:08:17 PM 47.1689 -119.4208 218° Southwest 252 290 10,100 -49 Level Seattle Center
Sat 04:09:18 PM 47.1031 -119.4231 181° South 273 314 10,000  Descending Seattle Center
Sat 04:10:18 PM 47.0897 -119.3100 100° East 270 311 10,100 50 Climbing Seattle Center
Sat 04:11:19 PM 47.0969 -119.2003 84° East 274 315 10,100  Level Seattle Center
Sat 04:12:20 PM 47.1186 -119.0967 73° East 269 310 10,100  Level Seattle Center
Sat 04:13:21 PM 47.1575 -119.0072 57° Northeast 270 311 10,100 -49 Level Seattle Center
Sat 04:14:22 PM 47.2317 -119.0086 359° North 256 295 10,000 -99 Descending Seattle Center
Sat 04:15:22 PM 47.2983 -119.0225 352° North 247 284 9,900 -347 Descending Seattle Center
Sat 04:16:23 PM 47.3631 -119.0347 353° North 235 270 9,300 -1,623 Descending Seattle Center
Sat 04:17:24 PM 47.3997 -119.0950 312° West 224 258 6,600 -2,508 Descending Seattle Center
Sat 04:18:25 PM 47.3981 -119.1847 268° West 218 251 4,200 -1,721 Descending Seattle Center
Sat 04:19:26 PM 47.3811 -119.2761 255° West 214 246 3,100 -595 Descending Seattle Center
Sat 04:20:26 PM 47.3653 -119.3511 253° West 195 224 3,000 -50 Descending Seattle Center
Sat 04:21:27 PM 47.3156 -119.3689 194° South 208 239 3,000 -443 Level Seattle Center
Sat 04:22:28 PM 47.2644 -119.3450 162° South 195 224 2,100 -885 Descending Seattle Center
Sat 04:23:29 PM 47.2181 -119.3236 163° South 179 206 1,200 -443 Descending Seattle Center
Sat 04:24:30 PM 47.1861 -119.3050 158° South 170 196 1,200 24 Level Seattle Center
Sat 04:26:00 PM 47.2827 -118.7530 72° East  Level FlightAware Approximate
Sat 04:33:00 PM 47.8121 -117.9178 278° West  Level FlightAware Approximate
Sat 04:34:00 PM 47.8477 -118.3040 278° West  Level FlightAware Approximate
Sat 04:35:00 PM 47.8821 -118.6907 278° West  Level FlightAware Approximate
Sat 04:36:00 PM 47.9151 -119.0779 277° West  Level FlightAware Approximate
Sat 04:37:00 PM 47.9469 -119.4656 277° West  Level FlightAware Approximate
Sat 04:38:00 PM 47.9773 -119.8538 277° West  Level FlightAware Approximate
Sat 04:39:00 PM 48.0064 -120.2424 277° West  Level FlightAware Approximate
Sat 04:40:00 PM 48.0338 -120.6315 276° West  Level FlightAware Approximate
Sat 04:41:00 PM 48.0596 -121.0211 276° West  Level FlightAware Approximate
Sat 04:42:00 PM 48.0841 -121.4110 276° West  Level FlightAware Approximate
Sat 04:43:00 PM 48.1073 -121.8013 275° West  Level FlightAware Approximate
Sat 04:44:00 PM 48.1167 -122.0407 90° East  Level FlightAware Approximate
Sat 04:45:00 PM 48.1158 -121.9487 94° East  Level FlightAware Approximate
Sat 04:46:00 PM 48.0970 -121.5578 94° East  Level FlightAware Approximate
Sat 04:47:00 PM 48.0768 -121.1672 94° East  Level FlightAware Approximate
Sat 04:48:00 PM 48.0554 -120.7769 95° East  Level FlightAware Approximate
Sat 04:49:00 PM 48.0326 -120.3870 95° East  Level FlightAware Approximate
Sat 04:50:00 PM 48.0090 -119.9973 95° East  Level FlightAware Approximate
Sat 04:51:00 PM 47.9842 -119.6080 95° East  Level FlightAware Approximate
Sat 04:52:00 PM 47.9580 -119.2191 96° East  Level FlightAware Approximate
Sat 04:53:00 PM 47.9306 -118.8306 96° East  Level FlightAware Approximate
Sat 04:54:00 PM 47.9018 -118.4425 96° East  Level FlightAware Approximate
Sat 04:55:00 PM 47.8717 -118.0548 96° East  Level FlightAware Approximate
Sat 04:56:00 PM 47.8403 -117.6676 97° East  Level FlightAware Approximate
Sat 04:57:00 PM 47.8066 -117.2811 97° East  Level FlightAware Approximate
Sat 04:58:00 PM 47.7713 -116.8951 98° East  Level FlightAware Approximate
Sat 04:59:00 PM 47.7347 -116.5097 98° East  Level FlightAware Approximate
Sat 05:00:00 PM 47.6968 -116.1248 98° East  Level FlightAware Approximate
Sat 05:01:00 PM 47.6577 -115.7405 98° East  Level FlightAware Approximate
Sat 05:02:00 PM 47.6657 -115.9796 274° West  Level FlightAware Approximate
Sat 05:03:00 PM 47.6839 -116.3673 274° West  Level FlightAware Approximate
Sat 05:04:00 PM 47.7008 -116.7553 274° West  Level FlightAware Approximate
Sat 05:05:00 PM 47.7164 -117.1435 274° West  Level FlightAware Approximate
Sat 05:06:00 PM 47.8125 -117.5053 292° West  Level FlightAware Approximate
Sat 05:07:00 PM 47.6680 -117.7563 288° West  Level FlightAware Approximate
Sat 05:08:00 PM 47.7470 -118.1271 288° West  Level FlightAware Approximate
Sat 05:09:00 PM 47.8161 -118.5025 284° West  Level FlightAware Approximate
Sat 05:10:00 PM 47.8764 -118.8819 283° West  Level FlightAware Approximate
Sat 05:11:00 PM 47.9355 -119.2622 283° West  Level FlightAware Approximate
Sat 05:12:00 PM 47.9801 -119.6467 276° West  Level FlightAware Approximate
Sat 05:13:00 PM 48.0082 -120.0355 276° West  Level FlightAware Approximate
Sat 05:14:00 PM 48.0381 -120.4238 287° West  Level FlightAware Approximate
Sat 05:15:00 PM 48.0946 -120.8046 276° West  Level FlightAware Approximate
Sat 05:16:00 PM 48.1219 -121.1944 276° West  Level FlightAware Approximate
Sat 05:17:00 PM 48.1479 -121.5846 276° West  Level FlightAware Approximate
Sat 05:18:00 PM 48.1202 -121.9702 326° Northwest  Level FlightAware Approximate
Sat 05:19:00 PM 48.0954 -122.0148 110° East  Level FlightAware Approximate
Sat 05:20:00 PM 47.9832 -121.6662 110° East  Level FlightAware Approximate
Sat 05:21:00 PM 48.1126 -121.4277 96° East  Level FlightAware Approximate
Sat 05:22:00 PM 48.0831 -121.0383 96° East  Level FlightAware Approximate
Sat 05:23:00 PM 48.0524 -120.6494 97° East  Level FlightAware Approximate
Sat 05:24:00 PM 48.0334 -120.2598 90° East  Level FlightAware Approximate
Sat 05:25:00 PM 47.9775 -120.5546 256° West  Level FlightAware Approximate
Sat 05:26:00 PM 47.9063 -120.9294 256° West  Level FlightAware Approximate
Sat 05:26:19 PM 47.2547 -119.3403 84° East 203 234 2,700  Level Seattle Center
Sat 05:27:00 PM 47.8092 -121.2846 247° West  Level FlightAware Approximate
Sat 05:27:20 PM 47.3158 -119.3667 344° North 226 260 4,900  Level Seattle Center
Sat 05:28:00 PM 47.7178 -121.6192 83° East  Level FlightAware Approximate
Sat 05:28:21 PM 47.3783 -119.3931 344° North 234 269 8,400  Level Seattle Center
Sat 05:29:00 PM 47.7469 -121.2325 83° East  Level FlightAware Approximate
Sat 05:29:21 PM 47.4375 -119.4167 345° North 227 261 9,600  Level Seattle Center
Sat 05:30:00 PM 47.7747 -120.8454 84° East  Level FlightAware Approximate
Sat 05:30:22 PM 47.5050 -119.4008 North 239 275 9,900  Level Seattle Center
Sat 05:31:00 PM 47.8013 -120.4579 84° East  Level FlightAware Approximate
Sat 05:31:23 PM 47.5581 -119.3858 11° North 194 223 10,100  Level Seattle Center
Sat 05:32:24 PM 47.6131 -119.3736 North 198 228 10,100 -148 Level Seattle Center
Sat 05:33:25 PM 47.6714 -119.3642 North 195 224 9,800 -50 Descending Seattle Center
Sat 05:34:25 PM 47.6825 -119.4297 284° West 196 226 10,000 99 Climbing Seattle Center
Sat 05:35:26 PM 47.6300 -119.4606 202° Southwest 209 241 10,000  Level Seattle Center
Sat 05:36:27 PM 47.5700 -119.4728 188° South 219 252 10,000 -99 Level Seattle Center
Sat 05:37:27 PM 47.5114 -119.4781 183° South 214 246 9,800 -149 Descending Seattle Center
Sat 05:38:28 PM 47.4503 -119.4772 179° South 219 252 9,700  Descending Seattle Center
Sat 05:39:29 PM 47.3864 -119.4703 176° South 214 246 9,800 148 Climbing Seattle Center
Sat 05:40:30 PM 47.3239 -119.4622 175° South 225 259 10,000 -49 Climbing Seattle Center
Sat 05:41:31 PM 47.2972 -119.3942 120° Southeast 225 259 9,700 -248 Descending Seattle Center
Sat 05:42:31 PM 47.3303 -119.3189 57° Northeast 219 252 9,500 -446 Descending Seattle Center
Sat 05:43:32 PM 47.3603 -119.2564 55° Northeast 219 252 8,800 -148 Descending Seattle Center
Sat 05:44:33 PM 47.3983 -119.1850 52° Northeast 220 253 9,200 298 Climbing Seattle Center
Sat 05:45:33 PM 47.4378 -119.1175 49° Northeast 218 251 9,400 198 Climbing Seattle Center
Sat 05:46:34 PM 47.4992 -119.1169 360° North 202 232 9,600 148 Climbing Seattle Center
Sat 05:47:35 PM 47.5478 -119.1628 328° Northwest 204 235 9,700 98 Climbing Seattle Center
Sat 05:48:36 PM 47.5908 -119.2181 319° Northwest 204 235 9,800 298 Climbing Seattle Center
Sat 05:49:36 PM 47.6075 -119.2936 288° West 208 239 10,300 496 Climbing Seattle Center
Sat 05:50:37 PM 47.6603 -119.3072 350° North 240 276 10,800 787 Climbing Seattle Center
Sat 05:51:38 PM 47.6794 -119.1850 77° East 323 372 11,900 1,426 Climbing Seattle Center
Sat 05:52:39 PM 47.6825 -119.0336 88° East 364 419 13,700 1,835 Climbing Seattle Center
Sat 05:53:39 PM 47.6822 -118.8706 90° East 391 450 15,600 1,934 Climbing Seattle Center
Sat 05:54:40 PM 47.6819 -118.7022 90° East 407 468 17,600 2,164 Climbing Seattle Center
Sat 05:55:41 PM 47.6806 -118.5308 91° East 414 476 20,000 1,869 Climbing Seattle Center
Sat 05:56:42 PM 47.6806 -118.3517 90° East 431 496 21,400 1,438 Climbing Seattle Center
Sat 05:57:42 PM 47.6797 -118.1642 90° East 452 520 22,900 1,488 Climbing Seattle Center
Sat 05:58:43 PM 47.6811 -117.9728 89° East 464 534 24,400 1,426 Climbing Seattle Center
Sat 05:59:44 PM 47.6817 -117.7778 90° East 473 544 25,800 1,672 Climbing Seattle Center
Sat 06:00:45 PM 47.6822 -117.5831 90° East 473 544 27,800 1,082 Climbing Seattle Center
Sat 06:01:46 PM 47.6828 -117.3922 90° East 467 537 28,000 99 Climbing Seattle Center
Sat 06:02:46 PM 47.6833 -117.1975 90° East 464 534 28,000  Level Seattle Center
Sat 06:03:47 PM 47.6844 -116.9844 89° East 492 566 28,000 -98 Level Seattle Center
Sat 06:04:48 PM 47.6858 -116.7611 89° East 524 603 27,800 -98 Descending Seattle Center
Sat 06:05:49 PM 47.7483 -116.5672 64° Northeast 534 615 27,800 -49 Level Seattle Center
Sat 06:06:50 PM 47.8639 -116.6092 346° North 491 565 27,700 99 Descending Seattle Center
Sat 06:07:50 PM 47.9072 -116.8311 286° West 475 547 28,000 -50 Climbing Seattle Center
Sat 06:08:51 PM 47.9369 -117.0181 283° West 469 540 27,600 98 Descending Seattle Center
Sat 06:09:52 PM 47.9431 -117.2128 273° West 482 555 28,200 393 Climbing Seattle Center
Sat 06:10:53 PM 47.9414 -117.4086 269° West 481 554 28,400 198 Climbing Seattle Center
Sat 06:11:53 PM 47.9431 -117.6025 271° West 475 547 28,600 -496 Climbing Seattle Center
Sat 06:12:54 PM 47.9428 -117.7961 270° West 472 543 27,400 -541 Descending Seattle Center
Sat 06:13:55 PM 47.9394 -117.9869 269° West 465 535 27,500 -148 Climbing Seattle Center
Sat 06:14:56 PM 47.9369 -118.1744 269° West 456 525 27,100 -298 Descending Seattle Center
Sat 06:15:56 PM 47.9364 -118.3611 270° West 452 520 26,900 50 Descending Seattle Center
Sat 06:16:57 PM 47.9347 -118.5456 269° West 447 514 27,200 168 Climbing Seattle Center
Sat 06:22:29 PM 47.9810 -119.5820 269° West 431 496 28,000 129 Climbing FlightAware ADS-B
Sat 06:23:08 PM 47.9890 -119.6980 276° West 416 479 28,000  Level FlightAware ADS-B
Sat 06:24:07 PM 48.0020 -119.8630 277° West 416 479 28,000 -361 Level FlightAware ADS-B
Sat 06:24:31 PM 48.0060 -119.9300 275° West 407 468 27,500 -2,813 Descending FlightAware ADS-B
Sat 06:25:11 PM 48.0080 -120.0490 271° West 421 484 25,000 -3,800 Descending FlightAware ADS-B
Sat 06:26:01 PM 48.0000 -120.1780 265° West 422 486 21,800 -1,882 Descending FlightAware ADS-B
Sat 06:26:53 PM 47.9970 -120.3070 268° West 422 486 21,800  Level FlightAware ADS-B
Sat 06:27:29 PM 47.9950 -120.3960 268° West 422 486 21,800  Level FlightAware ADS-B
Sat 06:28:05 PM 47.9930 -120.4850 268° West 422 486 21,800  Level FlightAware ADS-B
Sat 06:29:05 PM 47.9900 -120.6340 268° West 422 486 21,800  Level FlightAware ADS-B
Sat 06:29:54 PM 47.9870 -120.7560 268° West 422 486 21,800 -5,795 Level FlightAware ADS-B
Sat 06:30:33 PM 47.9490 -120.9050 249° West 369 425 13,300 -5,930 Descending FlightAware ADS-B
Sat 06:31:20 PM 47.9410 -121.0060 263° West 369 425 13,300  Level FlightAware ADS-B
Sat 06:31:44 PM 47.9380 -121.0580 265° West 369 425 13,300 -1,326 Level FlightAware ADS-B
Sat 06:32:46 PM 47.9250 -121.2180 263° West 274 315 11,400 -1,121 Descending FlightAware ADS-B
Sat 06:33:31 PM 47.9180 -121.3040 263° West 270 311 11,300 -67 Descending FlightAware ADS-B
Sat 06:34:16 PM 47.9120 -121.3870 264° West 284 327 11,300  Level FlightAware ADS-B
Sat 06:35:07 PM 47.9040 -121.4840 263° West 270 311 11,300  Level FlightAware ADS-B
Sat 06:35:57 PM 47.8970 -121.5760 264° West 268 308 11,300  Level FlightAware ADS-B
Sat 06:36:37 PM 47.8910 -121.6480 263° West 262 302 11,300  Level FlightAware ADS-B
Sat 06:37:12 PM 47.8800 -121.7090 255° West 258 297 11,300 -111 Level FlightAware ADS-B
Sat 06:37:31 PM 47.8640 -121.7350 227° Southwest 254 292 11,200 -1,440 Descending FlightAware ADS-B
Sat 06:38:02 PM 47.8490 -121.7800 244° Southwest 235 270 10,100 -2,348 Descending FlightAware ADS-B
Sat 06:38:17 PM 47.8450 -121.8030 255° West 229 264 9,400 -2,550 Descending FlightAware ADS-B
Sat 06:38:42 PM 47.8400 -121.8350 257° West 231 266 8,400 -3,055 Descending FlightAware ADS-B
Sat 06:39:12 PM 47.8310 -121.8880 256° West 232 267 6,600 -3,444 Descending FlightAware ADS-B
Sat 06:39:36 PM 47.8260 -121.9230 258° West 226 260 5,300 -3,103 Descending FlightAware ADS-B
Sat 06:39:41 PM 47.8250 -121.9310 259° West 225 259 5,100 -2,280 Descending FlightAware ADS-B
Sat 06:40:26 PM 47.8170 -121.9960 260° West 212 244 3,400 -1,612 Descending FlightAware ADS-B
Sat 06:40:48 PM 47.8140 -122.0270 262° West 213 245 3,300 -154 Descending FlightAware ADS-B
Sat 06:41:05 PM 47.8110 -122.0520 260° West 213 245 3,300  Level FlightAware ADS-B
Sat 06:41:27 PM 47.8070 -122.0830 259° West 215 247 3,300  Level FlightAware ADS-B
Sat 06:41:49 PM 47.8040 -122.1150 262° West 214 246 3,300 -130 Level FlightAware ADS-B
Sat 06:42:13 PM 47.7990 -122.1510 258° West 215 247 3,200 -778 Descending FlightAware ADS-B
Sat 06:42:43 PM 47.7920 -122.1940 256° West 212 244 2,600 -778 Descending FlightAware ADS-B
Sat 06:43:07 PM 47.7830 -122.2270 248° West 212 244 2,500 -125 Descending FlightAware ADS-B
Sat 06:43:31 PM 47.7750 -122.2600 250° West 215 247 2,500  Level FlightAware ADS-B
Sat 06:43:53 PM 47.7670 -122.2890 248° West 211 243 2,500  Level FlightAware ADS-B
Sat 06:44:16 PM 47.7550 -122.3170 237° Southwest 206 237 2,500  Level FlightAware ADS-B
Sat 06:44:44 PM 47.7410 -122.3500 238° Southwest 208 239 2,500  Level FlightAware ADS-B
Sat 06:45:06 PM 47.7300 -122.3770 239° Southwest 208 239 2,500  Level FlightAware ADS-B
Sat 06:45:36 PM 47.7150 -122.4110 237° Southwest 189 217 2,500  Level FlightAware ADS-B
Sat 06:45:52 PM 47.7030 -122.4210 209° Southwest 190 219 2,500 261 Level FlightAware ADS-B
Sat 06:45:59 PM 47.6970 -122.4210 180° South 189 217 2,600  Climbing FlightAware ADS-B
Sat 06:46:41 PM 47.6650 -122.4150 173° South 173 199 2,500 -91 Descending FlightAware ADS-B
Sat 06:47:05 PM 47.6490 -122.4040 155° Southeast 178 205 2,500 -125 Level FlightAware ADS-B
Sat 06:47:29 PM 47.6290 -122.3850 147° Southeast 174 200 2,400 -625 Descending FlightAware ADS-B
Sat 06:47:53 PM 47.6110 -122.3710 152° Southeast 172 198 2,000 -568 Descending FlightAware ADS-B
Sat 06:48:43 PM 47.6450 -122.3990 331° Northwest 176 203 1,700 -1,121 Descending FlightAware ADS-B
Sat 06:49:24 PM 47.5514 -122.3217 331° Northwest 162 186 300 15,490 Descending Seattle Center
Sat 06:50:21 PM 47.5161 -122.2897 149° Southeast 162 186 27,000 28,105 Climbing Seattle Center
Sat 06:52:00 PM 47.4875 -121.9764 98° East  Level Estimated
Sat 06:59:00 PM 47.3564 -120.6512 98° East  Level Estimated
Sat 07:00:00 PM 47.3365 -120.4625 99° East  Level Estimated
Sat 07:01:00 PM 47.3162 -120.2738 99° East  Level Estimated
Sat 07:02:00 PM 47.2956 -120.0854 99° East  Level Estimated
Sat 07:03:00 PM 47.2747 -119.8971 99° East  Level Estimated
Sat 07:04:00 PM 47.2535 -119.7089 99° East  Level Estimated
Sat 07:05:00 PM 47.2320 -119.5209 99° East  Level Estimated
Sat 07:06:00 PM 47.2102 -119.3330 100° East  Level Estimated

Login

Don't have an account? Register now (free) for customized features, flight alerts, and more!